createdAt,value
2018-05-31T00:00:25.890Z,14.63
2018-05-31T00:02:52.815Z,16.90
2018-05-31T00:05:19.239Z,13.80
2018-05-31T00:07:45.570Z,7.03
2018-05-31T00:10:11.931Z,14.60
2018-05-31T00:12:38.321Z,13.63
2018-05-31T00:15:04.660Z,18.10
2018-05-31T00:17:31.049Z,16.57
2018-05-31T00:19:57.601Z,15.77
2018-05-31T00:22:24.682Z,14.73
2018-05-31T00:24:51.060Z,17.40
2018-05-31T00:27:18.178Z,15.67
2018-05-31T00:29:44.527Z,15.90
2018-05-31T00:32:10.853Z,14.20
2018-05-31T00:34:37.193Z,13.70
2018-05-31T00:37:04.310Z,13.40
2018-05-31T00:39:31.050Z,14.60
2018-05-31T00:41:57.674Z,17.33
2018-05-31T00:44:24.160Z,14.13
2018-05-31T00:46:50.557Z,13.40
2018-05-31T00:49:16.906Z,14.47
2018-05-31T00:51:43.290Z,14.83
2018-05-31T00:54:09.682Z,15.20
2018-05-31T00:56:36.037Z,12.97
2018-05-31T00:59:03.161Z,17.00
2018-05-31T01:01:29.806Z,16.47
2018-05-31T01:03:56.360Z,17.47
2018-05-31T01:06:22.741Z,5.53
2018-05-31T01:08:49.098Z,16.87
2018-05-31T01:11:15.686Z,17.47
2018-05-31T01:13:42.638Z,13.70
2018-05-31T01:16:09.028Z,16.73
2018-05-31T01:18:35.401Z,15.50
2018-05-31T01:21:01.870Z,16.03
2018-05-31T01:23:28.306Z,16.00
2018-05-31T01:25:54.669Z,16.63
2018-05-31T01:28:20.998Z,18.47
2018-05-31T01:30:47.665Z,18.20
2018-05-31T01:33:14.065Z,19.63
2018-05-31T01:35:41.164Z,18.97
2018-05-31T01:38:19.710Z,18.73
2018-05-31T01:40:46.448Z,18.30
2018-05-31T01:43:12.826Z,20.07
2018-05-31T01:45:39.262Z,17.97
2018-05-31T01:48:05.619Z,18.90
2018-05-31T01:50:32.189Z,16.20
2018-05-31T01:52:59.306Z,17.23
2018-05-31T01:55:25.646Z,16.00
2018-05-31T01:57:51.986Z,16.90
2018-05-31T02:00:18.794Z,17.40
2018-05-31T02:02:45.689Z,17.90
2018-05-31T02:05:12.872Z,18.90
2018-05-31T02:07:39.230Z,17.13
2018-05-31T02:10:05.786Z,17.03
2018-05-31T02:12:32.606Z,17.10
2018-05-31T02:14:58.961Z,18.03
2018-05-31T02:17:25.415Z,21.80
2018-05-31T02:19:52.836Z,17.87
2018-05-31T02:22:19.214Z,19.63
2018-05-31T02:24:46.333Z,20.37
2018-05-31T02:27:13.456Z,18.60
2018-05-31T02:29:39.805Z,24.27
2018-05-31T02:32:06.134Z,17.93
2018-05-31T02:34:32.477Z,20.20
2018-05-31T02:36:59.371Z,19.20
2018-05-31T02:39:26.898Z,20.03
2018-05-31T02:41:53.387Z,18.83
2018-05-31T02:44:19.863Z,20.83
2018-05-31T02:46:47.099Z,20.77
2018-05-31T02:49:13.511Z,19.57
2018-05-31T02:51:39.885Z,21.20
2018-05-31T02:54:06.233Z,24.63
2018-05-31T02:56:32.619Z,21.13
2018-05-31T02:58:59.069Z,21.37
2018-05-31T03:01:26.217Z,21.50
2018-05-31T03:03:52.667Z,19.13
2018-05-31T03:06:20.071Z,20.70
2018-05-31T03:08:47.322Z,20.07
2018-05-31T03:11:14.249Z,20.80
2018-05-31T03:13:40.935Z,21.30
2018-05-31T03:16:07.305Z,26.20
2018-05-31T03:18:33.627Z,21.03
2018-05-31T03:21:00.716Z,23.33
2018-05-31T03:23:27.094Z,24.67
2018-05-31T03:25:53.446Z,21.37
2018-05-31T03:28:20.573Z,22.33
2018-05-31T03:30:47.729Z,19.57
2018-05-31T03:33:14.846Z,19.27
2018-05-31T03:35:41.262Z,18.80
2018-05-31T03:38:07.617Z,18.00
2018-05-31T03:40:33.969Z,18.23
2018-05-31T03:43:01.089Z,17.10
2018-05-31T03:45:29.033Z,19.27
2018-05-31T03:47:55.410Z,18.37
2018-05-31T03:50:21.777Z,17.77
2018-05-31T03:52:48.378Z,16.17
2018-05-31T03:55:14.795Z,17.13
2018-05-31T03:57:41.117Z,15.50
2018-05-31T04:00:08.399Z,13.53
2018-05-31T04:02:34.767Z,14.47
2018-05-31T04:05:01.190Z,15.37
2018-05-31T04:07:27.570Z,15.60
2018-05-31T04:09:53.961Z,14.30
2018-05-31T04:12:20.394Z,14.77
2018-05-31T04:14:46.882Z,15.27
2018-05-31T04:17:13.217Z,16.10
2018-05-31T04:19:39.814Z,18.50
2018-05-31T04:22:06.167Z,13.83
2018-05-31T04:24:32.591Z,17.60
2018-05-31T04:26:59.119Z,15.70
2018-05-31T04:29:25.510Z,15.77
2018-05-31T04:31:52.714Z,16.57
2018-05-31T04:34:19.264Z,14.50
2018-05-31T04:36:45.643Z,13.17
2018-05-31T04:39:12.005Z,16.17
2018-05-31T04:41:38.725Z,15.73
2018-05-31T04:44:05.151Z,15.20
2018-05-31T04:46:31.521Z,18.40
2018-05-31T04:48:57.953Z,15.37
2018-05-31T04:51:24.450Z,16.27
2018-05-31T04:53:50.869Z,15.67
2018-05-31T04:56:18.377Z,17.03
2018-05-31T04:58:44.738Z,16.90
2018-05-31T05:01:11.131Z,17.07
2018-05-31T05:03:37.493Z,18.27
2018-05-31T05:06:03.822Z,18.57
2018-05-31T05:08:30.162Z,17.53
2018-05-31T05:10:56.514Z,15.33
2018-05-31T05:13:22.949Z,6.90
2018-05-31T05:15:50.094Z,15.20
2018-05-31T05:18:17.066Z,15.30
2018-05-31T05:20:43.425Z,15.63
2018-05-31T05:23:09.766Z,15.63
2018-05-31T05:25:36.153Z,16.70
2018-05-31T05:28:02.478Z,14.63
2018-05-31T05:30:28.822Z,15.80
2018-05-31T05:32:55.153Z,14.50
2018-05-31T05:35:22.278Z,14.63
2018-05-31T05:37:48.717Z,18.60
2018-05-31T05:40:15.792Z,16.83
2018-05-31T05:42:42.141Z,17.03
2018-05-31T05:45:08.485Z,16.60
2018-05-31T05:47:34.881Z,15.50
2018-05-31T05:50:01.520Z,15.67
2018-05-31T05:52:27.977Z,17.00
2018-05-31T05:54:54.355Z,18.20
2018-05-31T05:57:21.506Z,14.43
2018-05-31T05:59:48.190Z,15.77
2018-05-31T06:02:14.568Z,17.40
2018-05-31T06:04:40.985Z,17.67
2018-05-31T06:07:07.354Z,14.60
2018-05-31T06:09:34.541Z,16.10
2018-05-31T06:12:00.942Z,17.03
2018-05-31T06:14:27.319Z,15.83
2018-05-31T06:16:53.714Z,14.77
2018-05-31T06:19:20.202Z,6.87
2018-05-31T06:21:46.941Z,7.23
2018-05-31T06:24:13.310Z,11.67
2018-05-31T06:26:40.414Z,7.73
2018-05-31T06:29:06.830Z,7.33
2018-05-31T06:31:33.281Z,7.10
2018-05-31T06:33:59.645Z,5.13
2018-05-31T06:36:25.954Z,7.67
2018-05-31T06:38:52.584Z,8.27
2018-05-31T06:41:18.994Z,7.87
2018-05-31T06:43:45.345Z,6.70
2018-05-31T06:46:11.721Z,4.70
2018-05-31T06:48:38.134Z,5.30
2018-05-31T06:51:05.510Z,9.70
2018-05-31T06:53:32.623Z,6.17
2018-05-31T06:55:59.006Z,5.00
2018-05-31T06:58:25.366Z,6.93
2018-05-31T07:00:51.863Z,5.97
2018-05-31T07:03:18.309Z,7.03
2018-05-31T07:05:44.669Z,6.77
2018-05-31T07:08:11.074Z,7.77
2018-05-31T07:10:37.454Z,7.27
2018-05-31T07:13:03.823Z,9.17
2018-05-31T07:15:30.937Z,6.30
2018-05-31T07:17:57.286Z,8.83
2018-05-31T07:20:24.391Z,6.97
2018-05-31T07:22:50.766Z,6.63
2018-05-31T07:25:17.187Z,7.13
2018-05-31T07:27:43.645Z,9.73
2018-05-31T07:30:10.186Z,10.97
2018-05-31T07:32:37.415Z,8.97
2018-05-31T07:35:03.801Z,7.57
2018-05-31T07:37:30.142Z,9.63
2018-05-31T07:39:56.670Z,8.60
2018-05-31T07:42:23.117Z,7.83
2018-05-31T07:44:50.438Z,7.63
2018-05-31T07:47:16.796Z,8.30
2018-05-31T07:49:43.428Z,8.87
2018-05-31T07:52:09.797Z,7.10
2018-05-31T07:54:36.157Z,8.73
2018-05-31T07:57:03.291Z,7.23
2018-05-31T07:59:29.653Z,8.23
2018-05-31T08:01:56.009Z,8.47
2018-05-31T08:04:22.511Z,7.57
2018-05-31T08:06:49.034Z,7.73
2018-05-31T08:09:16.185Z,9.17
2018-05-31T08:11:43.441Z,8.77
2018-05-31T08:14:10.585Z,8.60
2018-05-31T08:16:37.688Z,10.53
2018-05-31T08:19:04.046Z,8.90
2018-05-31T08:21:30.557Z,6.50
2018-05-31T08:23:57.642Z,6.67
2018-05-31T08:26:24.733Z,7.83
2018-05-31T08:28:52.034Z,6.70
2018-05-31T08:31:18.494Z,5.93
2018-05-31T08:33:45.746Z,7.43
2018-05-31T08:36:12.094Z,8.00
2018-05-31T08:38:38.457Z,8.20
2018-05-31T08:41:04.993Z,5.40
2018-05-31T08:43:31.394Z,6.23
2018-05-31T08:45:57.817Z,7.77
2018-05-31T08:48:24.200Z,5.68
2018-05-31T08:50:51.398Z,7.15
2018-05-31T08:53:17.731Z,7.12
2018-05-31T08:55:44.462Z,6.10
2018-05-31T08:58:10.825Z,5.90
2018-05-31T09:00:37.214Z,5.62
2018-05-31T09:03:03.610Z,19.25
2018-05-31T09:05:29.978Z,7.45
2018-05-31T09:07:57.090Z,17.15
2018-05-31T09:10:24.201Z,19.70
2018-05-31T09:12:51.327Z,6.65
2018-05-31T09:15:19.063Z,17.73
2018-05-31T09:17:45.836Z,16.42
2018-05-31T09:20:12.216Z,19.08
2018-05-31T09:22:38.577Z,15.85
2018-05-31T09:25:04.954Z,18.23
2018-05-31T09:27:31.279Z,5.43
2018-05-31T09:29:57.723Z,17.25
2018-05-31T09:32:24.062Z,20.17
2018-05-31T09:34:50.452Z,17.77
2018-05-31T09:37:16.809Z,18.92
2018-05-31T09:39:43.292Z,16.50
2018-05-31T09:42:09.648Z,17.87
2018-05-31T09:44:35.989Z,18.00
2018-05-31T09:47:03.069Z,17.95
2018-05-31T09:49:30.173Z,16.45
2018-05-31T09:51:57.259Z,18.10
2018-05-31T09:54:24.335Z,19.67
2018-05-31T09:56:51.515Z,17.42
2018-05-31T09:59:18.574Z,5.80
2018-05-31T10:01:45.926Z,17.77
2018-05-31T10:04:13.016Z,17.17
2018-05-31T10:06:39.422Z,17.25
2018-05-31T10:09:06.557Z,18.55
2018-05-31T10:11:34.650Z,15.10
2018-05-31T10:14:01.020Z,15.73
2018-05-31T10:16:27.347Z,16.48
2018-05-31T10:18:54.429Z,20.60
2018-05-31T10:21:21.282Z,14.98
2018-05-31T10:23:48.371Z,15.77
2018-05-31T10:26:14.942Z,15.20
2018-05-31T10:28:41.683Z,13.65
2018-05-31T10:31:14.105Z,8.85
2018-05-31T10:33:40.503Z,18.27
2018-05-31T10:36:06.912Z,14.63
2018-05-31T10:38:33.297Z,16.85
2018-05-31T10:40:59.949Z,6.43
2018-05-31T10:43:26.317Z,16.58
2018-05-31T10:45:53.406Z,14.63
2018-05-31T10:48:20.574Z,13.68
2018-05-31T10:50:47.025Z,14.82
2018-05-31T10:53:13.473Z,15.30
2018-05-31T10:55:39.822Z,14.52
2018-05-31T10:58:06.176Z,16.77
2018-05-31T11:00:33.512Z,14.57
2018-05-31T11:02:59.844Z,14.27
2018-05-31T11:05:26.257Z,15.88
2018-05-31T11:07:52.615Z,15.52
2018-05-31T11:10:19.233Z,16.52
2018-05-31T11:12:45.586Z,16.42
2018-05-31T11:15:11.922Z,17.73
2018-05-31T11:17:38.997Z,16.98
2018-05-31T11:20:05.437Z,15.93
2018-05-31T11:22:31.775Z,15.32
2018-05-31T11:24:58.154Z,15.63
2018-05-31T11:27:24.577Z,14.45
2018-05-31T11:29:51.081Z,14.75
2018-05-31T11:32:18.145Z,14.87
2018-05-31T11:34:44.887Z,15.57
2018-05-31T11:37:11.402Z,15.77
2018-05-31T11:39:37.757Z,17.17
2018-05-31T11:42:04.077Z,17.17
2018-05-31T11:44:30.823Z,15.80
2018-05-31T11:46:57.177Z,18.87
2018-05-31T11:49:24.172Z,16.93
2018-05-31T11:51:50.489Z,15.90
2018-05-31T11:54:17.593Z,14.67
2018-05-31T11:56:44.051Z,15.87
2018-05-31T11:59:10.436Z,16.00
2018-05-31T12:01:36.934Z,17.20
2018-05-31T12:04:04.054Z,16.43
2018-05-31T12:06:30.413Z,17.13
2018-05-31T12:08:57.549Z,15.27
2018-05-31T12:11:24.694Z,15.00
2018-05-31T12:13:51.859Z,15.10
2018-05-31T12:16:18.263Z,13.73
2018-05-31T12:18:44.621Z,16.43
2018-05-31T12:21:11.861Z,14.27
2018-05-31T12:23:38.174Z,14.13
2018-05-31T12:26:05.142Z,15.17
2018-05-31T12:28:32.253Z,23.47
2018-05-31T12:30:59.525Z,14.82
2018-05-31T12:33:25.965Z,16.57
2018-05-31T12:35:52.353Z,12.77
2018-05-31T12:38:19.518Z,14.63
2018-05-31T12:40:46.097Z,14.53
2018-05-31T12:43:13.109Z,18.17
2018-05-31T12:45:39.571Z,15.37
2018-05-31T12:48:06.851Z,15.53
2018-05-31T12:50:33.413Z,17.80
2018-05-31T12:52:59.885Z,15.00
2018-05-31T12:55:26.518Z,17.30
2018-05-31T12:57:52.937Z,18.30
2018-05-31T13:00:19.547Z,16.63
2018-05-31T13:02:45.885Z,13.13
2018-05-31T13:05:12.282Z,14.30
2018-05-31T13:07:39.330Z,15.53
2018-05-31T13:10:06.553Z,15.03
2018-05-31T13:12:32.897Z,17.33
2018-05-31T13:14:59.977Z,15.23
2018-05-31T13:17:26.328Z,14.27
2018-05-31T13:19:52.762Z,14.03
2018-05-31T13:22:19.129Z,14.37
2018-05-31T13:24:45.437Z,13.60
2018-05-31T13:27:11.765Z,15.50
2018-05-31T13:29:38.258Z,14.20
2018-05-31T13:32:04.623Z,13.67
2018-05-31T13:34:31.687Z,15.63
2018-05-31T13:36:58.014Z,13.60
2018-05-31T13:39:24.359Z,14.97
2018-05-31T13:44:36.153Z,16.00
2018-05-31T13:47:02.562Z,14.60
2018-05-31T13:49:28.870Z,14.00
2018-05-31T13:51:56.030Z,14.60
2018-05-31T13:54:22.661Z,15.43
2018-05-31T13:58:10.373Z,21.63
2018-05-31T14:00:36.854Z,10.05
2018-05-31T14:03:03.293Z,15.43
2018-05-31T14:05:29.745Z,14.60
2018-05-31T14:07:56.195Z,15.40
2018-05-31T14:10:23.364Z,18.33
2018-05-31T14:12:49.754Z,15.60
2018-05-31T14:15:16.073Z,19.50
2018-05-31T14:17:42.425Z,16.60
2018-05-31T14:20:08.781Z,13.80
2018-05-31T14:22:35.353Z,14.00
2018-05-31T14:25:01.737Z,13.50
2018-05-31T14:27:28.323Z,16.33
2018-05-31T14:29:55.686Z,14.80
2018-05-31T14:32:22.013Z,16.47
2018-05-31T14:34:48.469Z,22.90
2018-05-31T14:37:14.793Z,14.93
2018-05-31T14:39:41.125Z,14.73
2018-05-31T14:42:07.782Z,20.20
2018-05-31T14:44:34.271Z,16.60
2018-05-31T14:47:00.895Z,14.50
2018-05-31T14:49:27.241Z,19.07
2018-05-31T14:51:53.568Z,15.17
2018-05-31T14:54:20.654Z,19.03
2018-05-31T14:56:47.065Z,15.50
2018-05-31T14:59:14.122Z,17.33
2018-05-31T15:01:40.454Z,16.40
2018-05-31T15:04:06.842Z,15.50
2018-05-31T15:06:33.226Z,16.50
2018-05-31T15:08:59.678Z,13.93
2018-05-31T15:11:26.049Z,15.03
2018-05-31T15:13:53.297Z,15.80
2018-05-31T15:16:20.349Z,16.03
2018-05-31T15:18:47.438Z,17.47
2018-05-31T15:21:14.029Z,19.27
2018-05-31T15:23:41.093Z,14.93
2018-05-31T15:26:08.189Z,15.60
2018-05-31T15:28:34.510Z,16.67
2018-05-31T15:31:01.138Z,18.50
2018-05-31T15:33:27.476Z,17.10
2018-05-31T15:35:53.942Z,15.63
2018-05-31T15:38:20.266Z,9.83
2018-05-31T15:40:46.897Z,9.37
2018-05-31T15:43:13.261Z,15.17
2018-05-31T15:45:40.321Z,17.17
2018-05-31T15:48:07.370Z,8.07
2018-05-31T15:50:34.627Z,8.13
2018-05-31T15:53:00.931Z,18.03
2018-05-31T15:55:28.006Z,19.13
2018-05-31T15:57:54.326Z,7.67
2018-05-31T16:00:21.666Z,7.50
2018-05-31T16:02:48.713Z,8.00
2018-05-31T16:05:15.773Z,19.00
2018-05-31T16:07:42.106Z,16.53
2018-05-31T16:10:09.359Z,13.63
2018-05-31T16:12:36.411Z,10.40
2018-05-31T16:15:03.542Z,24.77
2018-05-31T16:17:30.650Z,9.17
2018-05-31T16:19:57.087Z,11.83
2018-05-31T16:22:23.517Z,21.57
2018-05-31T16:24:49.897Z,20.40
2018-05-31T16:27:17.048Z,17.87
2018-05-31T16:29:44.401Z,18.83
2018-05-31T16:32:11.476Z,9.37
2018-05-31T16:34:37.836Z,9.77
2018-05-31T16:37:04.165Z,10.10
2018-05-31T16:39:30.501Z,11.87
2018-05-31T16:41:56.861Z,21.40
2018-05-31T16:44:23.364Z,18.13
2018-05-31T16:46:49.706Z,11.87
2018-05-31T16:49:16.017Z,20.77
2018-05-31T16:51:42.416Z,21.50
2018-05-31T16:54:08.786Z,21.63
2018-05-31T16:56:35.118Z,20.07
2018-05-31T16:59:01.495Z,19.70
2018-05-31T17:01:28.629Z,8.77
2018-05-31T17:06:57.942Z,7.77
2018-05-31T17:09:25.025Z,9.23
2018-05-31T17:11:52.117Z,9.20
2018-05-31T17:14:19.329Z,6.10
2018-05-31T17:16:46.421Z,8.23
2018-05-31T17:19:12.755Z,10.67
2018-05-31T17:21:39.096Z,6.80
2018-05-31T17:24:05.421Z,8.30
2018-05-31T17:26:31.793Z,9.73
2018-05-31T17:29:00.013Z,8.67
2018-05-31T17:31:27.162Z,8.87
2018-05-31T17:33:53.473Z,4.80
2018-05-31T17:36:19.782Z,7.63
2018-05-31T17:38:46.129Z,7.80
2018-05-31T17:41:14.400Z,7.17
2018-05-31T17:43:40.724Z,5.60
2018-05-31T17:46:07.817Z,8.77
2018-05-31T17:48:34.137Z,7.03
2018-05-31T17:51:00.479Z,6.63
2018-05-31T17:53:26.904Z,7.43
2018-05-31T17:55:54.160Z,7.60
2018-05-31T17:58:20.737Z,7.30
2018-05-31T18:00:47.209Z,7.77
2018-05-31T18:03:14.306Z,5.60
2018-05-31T18:05:40.649Z,6.63
2018-05-31T18:08:07.206Z,6.30
2018-05-31T18:10:34.380Z,9.90
2018-05-31T18:13:00.774Z,10.30
2018-05-31T18:15:27.142Z,9.67
2018-05-31T18:17:53.866Z,8.63
2018-05-31T18:20:20.401Z,9.00
2018-05-31T18:22:47.601Z,6.67
2018-05-31T18:25:13.933Z,8.33
2018-05-31T18:27:40.446Z,7.53
2018-05-31T18:30:06.777Z,8.20
2018-05-31T18:32:33.143Z,10.77
2018-05-31T18:34:59.505Z,6.47
2018-05-31T18:37:26.870Z,7.73
2018-05-31T18:39:53.980Z,7.50
2018-05-31T18:42:20.306Z,8.20
2018-05-31T18:44:46.630Z,6.23
2018-05-31T18:47:13.006Z,10.20
2018-05-31T18:49:40.061Z,9.33
2018-05-31T18:52:07.721Z,8.50
2018-05-31T18:54:34.170Z,10.23
2018-05-31T18:57:00.678Z,7.57
2018-05-31T18:59:27.213Z,9.33
2018-05-31T19:01:53.796Z,11.33
2018-05-31T19:04:20.191Z,10.80
2018-05-31T19:06:47.439Z,13.60
2018-05-31T19:09:16.550Z,10.93
2018-05-31T19:11:43.609Z,9.70
2018-05-31T19:14:10.006Z,12.33
2018-05-31T19:16:36.687Z,9.67
2018-05-31T19:19:09.174Z,15.43
2018-05-31T19:21:36.298Z,12.20
2018-05-31T19:24:08.654Z,7.80
2018-05-31T19:26:36.046Z,11.37
2018-05-31T19:29:02.391Z,9.57
2018-05-31T19:31:28.906Z,10.93
2018-05-31T19:33:55.361Z,9.03
2018-05-31T19:39:21.499Z,9.07
2018-05-31T19:41:47.863Z,10.27
2018-05-31T19:44:20.342Z,9.67
2018-05-31T19:46:47.249Z,9.80
2018-05-31T19:49:13.650Z,10.13
2018-05-31T19:51:45.927Z,9.63
2018-05-31T19:54:12.242Z,9.20
2018-05-31T19:56:39.349Z,11.70
2018-05-31T19:59:11.739Z,14.13
2018-05-31T20:01:44.025Z,10.87
2018-05-31T20:04:11.111Z,11.80
2018-05-31T20:06:38.444Z,10.47
2018-05-31T20:09:05.756Z,25.13
2018-05-31T20:11:32.110Z,14.53
2018-05-31T20:13:58.566Z,16.23
2018-05-31T20:16:25.786Z,12.80
2018-05-31T20:18:52.205Z,15.30
2018-05-31T20:21:18.557Z,14.97
2018-05-31T20:23:45.638Z,23.97
2018-05-31T20:26:12.005Z,24.47
2018-05-31T20:28:38.862Z,23.83
2018-05-31T20:31:05.950Z,18.37
2018-05-31T20:33:33.057Z,13.50
2018-05-31T20:35:59.367Z,22.00
2018-05-31T20:38:25.800Z,8.47
2018-05-31T20:40:52.139Z,6.43
2018-05-31T20:43:18.471Z,7.07
2018-05-31T20:45:44.832Z,8.50
2018-05-31T20:48:11.153Z,4.93
2018-05-31T20:50:37.477Z,14.87
2018-05-31T20:53:03.860Z,14.17
2018-05-31T20:55:30.235Z,13.73
2018-05-31T20:57:57.621Z,14.27
2018-05-31T21:00:23.969Z,14.27
2018-05-31T21:02:50.305Z,13.83
2018-05-31T21:05:16.621Z,12.80
2018-05-31T21:07:43.967Z,13.83
2018-05-31T21:10:10.361Z,14.33
2018-05-31T21:12:36.740Z,11.73
2018-05-31T21:15:03.914Z,5.97
2018-05-31T21:17:30.318Z,5.70
2018-05-31T21:19:57.842Z,14.00
2018-05-31T21:22:24.193Z,12.27
2018-05-31T21:24:50.590Z,13.63
2018-05-31T21:27:17.090Z,15.07
2018-05-31T21:29:44.182Z,13.93
2018-05-31T21:32:11.299Z,12.20
2018-05-31T21:34:38.380Z,15.17
2018-05-31T21:37:04.847Z,11.93
2018-05-31T21:39:31.210Z,15.43
2018-05-31T21:41:58.271Z,11.87
2018-05-31T21:44:24.590Z,12.97
2018-05-31T21:46:51.911Z,12.47
2018-05-31T21:49:18.247Z,13.63
2018-05-31T21:51:44.603Z,15.73
2018-05-31T21:54:11.693Z,3.87
2018-05-31T21:56:38.247Z,14.93
2018-05-31T21:59:04.589Z,13.40
2018-05-31T22:01:32.470Z,14.03
2018-05-31T22:03:59.621Z,13.67
2018-05-31T22:06:27.037Z,12.27
2018-05-31T22:08:53.391Z,14.23
2018-05-31T22:11:19.770Z,13.90
2018-05-31T22:13:46.122Z,13.93
2018-05-31T22:16:12.718Z,14.10
2018-05-31T22:18:39.800Z,13.80
2018-05-31T22:21:06.133Z,14.17
2018-05-31T22:23:32.669Z,14.67
2018-05-31T22:25:59.167Z,13.20
2018-05-31T22:28:25.517Z,14.33
2018-05-31T22:30:51.897Z,14.20
2018-05-31T22:33:18.346Z,13.77
2018-05-31T22:35:45.153Z,14.00
2018-05-31T22:38:11.545Z,13.73
2018-05-31T22:40:38.631Z,14.43
2018-05-31T22:43:05.022Z,14.80
2018-05-31T22:45:31.455Z,17.40
2018-05-31T22:47:58.553Z,16.90
2018-05-31T22:50:24.910Z,14.07
2018-05-31T22:52:51.230Z,13.70
2018-05-31T22:55:17.599Z,13.63
2018-05-31T22:57:44.670Z,16.43
2018-05-31T23:00:11.777Z,15.13
2018-05-31T23:02:38.134Z,15.40
2018-05-31T23:05:04.482Z,14.43
2018-05-31T23:07:30.958Z,14.23
2018-05-31T23:09:57.461Z,14.70
2018-05-31T23:12:23.810Z,13.93
2018-05-31T23:14:50.137Z,13.10
2018-05-31T23:17:16.729Z,14.60
2018-05-31T23:19:43.054Z,13.07
2018-05-31T23:22:09.361Z,15.00
2018-05-31T23:24:35.713Z,13.87
2018-05-31T23:27:02.907Z,15.30
2018-05-31T23:29:29.338Z,12.77
2018-05-31T23:31:55.688Z,13.53
2018-05-31T23:34:22.197Z,13.60
2018-05-31T23:36:48.732Z,14.77
2018-05-31T23:39:15.066Z,15.27
2018-05-31T23:41:41.442Z,14.73
2018-05-31T23:44:07.807Z,14.53
2018-05-31T23:46:34.226Z,14.77
2018-05-31T23:49:01.338Z,13.30
2018-05-31T23:51:28.427Z,14.33
2018-05-31T23:53:54.769Z,13.70
2018-05-31T23:56:21.269Z,13.93
2018-05-31T23:58:47.613Z,13.00
